createdAt,value
2019-01-27T00:00:02.404Z,0
2019-01-27T00:01:10.453Z,0
2019-01-27T00:02:19.516Z,0
2019-01-27T00:03:27.573Z,0
2019-01-27T00:04:35.623Z,0
2019-01-27T00:05:43.678Z,0
2019-01-27T00:06:51.729Z,0
2019-01-27T00:07:59.802Z,0
2019-01-27T00:09:07.855Z,0
2019-01-27T00:10:15.885Z,0
2019-01-27T00:11:23.939Z,0
2019-01-27T00:12:32.008Z,0
2019-01-27T00:13:40.057Z,0
2019-01-27T00:14:48.126Z,0
2019-01-27T00:15:56.185Z,0
2019-01-27T00:17:04.216Z,0
2019-01-27T00:18:12.280Z,0
2019-01-27T00:19:20.371Z,0
2019-01-27T00:20:28.406Z,0
2019-01-27T00:21:36.463Z,0
2019-01-27T00:22:44.483Z,0
2019-01-27T00:23:52.569Z,0
2019-01-27T00:25:00.668Z,0
2019-01-27T00:26:08.695Z,0
2019-01-27T00:27:16.725Z,0
2019-01-27T00:28:24.774Z,0
2019-01-27T00:29:32.836Z,0
2019-01-27T00:30:40.918Z,0
2019-01-27T00:31:48.955Z,0
2019-01-27T00:32:57.016Z,0
2019-01-27T00:34:05.084Z,0
2019-01-27T00:35:13.135Z,0
2019-01-27T00:36:21.198Z,0
2019-01-27T00:37:29.234Z,0
2019-01-27T00:38:37.329Z,0
2019-01-27T00:39:45.351Z,0
2019-01-27T00:40:53.405Z,0
2019-01-27T00:42:01.462Z,0
2019-01-27T00:43:09.507Z,0
2019-01-27T00:44:17.578Z,0
2019-01-27T00:45:25.636Z,0
2019-01-27T00:46:33.683Z,0
2019-01-27T00:47:41.743Z,0
2019-01-27T00:48:49.801Z,0
2019-01-27T00:49:57.858Z,0
2019-01-27T00:51:05.922Z,0
2019-01-27T00:52:13.929Z,0
2019-01-27T00:53:22.023Z,0
2019-01-27T00:54:30.065Z,0
2019-01-27T00:55:38.124Z,0
2019-01-27T00:56:46.183Z,0
2019-01-27T00:57:54.221Z,0
2019-01-27T00:59:02.305Z,0
2019-01-27T01:00:10.365Z,0
2019-01-27T01:01:18.405Z,0
2019-01-27T01:02:26.466Z,0
2019-01-27T01:03:34.501Z,0
2019-01-27T01:04:42.635Z,0
2019-01-27T01:05:50.651Z,0
2019-01-27T01:06:58.692Z,0
2019-01-27T01:08:06.753Z,0
2019-01-27T01:09:14.832Z,0
2019-01-27T01:10:22.855Z,0
2019-01-27T01:11:30.961Z,0
2019-01-27T01:12:38.971Z,0
2019-01-27T01:13:47.019Z,0
2019-01-27T01:14:55.078Z,0
2019-01-27T01:16:03.143Z,0
2019-01-27T01:17:11.187Z,0
2019-01-27T01:18:19.246Z,0
2019-01-27T01:19:27.305Z,0
2019-01-27T01:20:35.368Z,0
2019-01-27T01:21:43.424Z,0
2019-01-27T01:22:51.475Z,0
2019-01-27T01:23:59.546Z,0
2019-01-27T01:25:07.617Z,0
2019-01-27T01:26:15.656Z,0
2019-01-27T01:27:23.705Z,0
2019-01-27T01:28:31.771Z,0
2019-01-27T01:29:39.840Z,0
2019-01-27T01:30:47.880Z,0
2019-01-27T01:31:55.941Z,0
2019-01-27T01:33:03.960Z,0
2019-01-27T01:34:12.054Z,0
2019-01-27T01:35:20.094Z,0
2019-01-27T01:36:28.162Z,0
2019-01-27T01:37:36.211Z,0
2019-01-27T01:38:44.248Z,0
2019-01-27T01:39:52.331Z,0
2019-01-27T01:41:00.392Z,0
2019-01-27T01:42:08.442Z,0
2019-01-27T01:43:16.489Z,0
2019-01-27T01:44:24.525Z,0
2019-01-27T01:45:32.604Z,0
2019-01-27T01:46:40.669Z,0
2019-01-27T01:47:48.724Z,0
2019-01-27T01:48:56.770Z,0
2019-01-27T01:50:04.818Z,0
2019-01-27T01:51:12.879Z,0
2019-01-27T01:52:20.940Z,0
2019-01-27T01:53:28.999Z,0
2019-01-27T01:54:37.083Z,0
2019-01-27T01:55:45.122Z,0
2019-01-27T01:56:53.166Z,0
2019-01-27T01:58:01.219Z,0
2019-01-27T01:59:09.283Z,0
2019-01-27T02:00:17.351Z,0
2019-01-27T02:01:25.404Z,0
2019-01-27T02:02:33.438Z,0
2019-01-27T02:03:41.508Z,0
2019-01-27T02:04:49.567Z,0
2019-01-27T02:05:57.616Z,0
2019-01-27T02:07:05.677Z,0
2019-01-27T02:08:13.723Z,0
2019-01-27T02:09:21.802Z,0
2019-01-27T02:10:29.853Z,0
2019-01-27T02:11:38.569Z,0
2019-01-27T02:12:45.956Z,0
2019-01-27T02:13:54.017Z,0
2019-01-27T02:15:02.078Z,0
2019-01-27T02:16:10.129Z,0
2019-01-27T02:17:18.195Z,0
2019-01-27T02:18:26.237Z,0
2019-01-27T02:19:34.262Z,0
2019-01-27T02:20:42.353Z,0
2019-01-27T02:21:50.412Z,0
2019-01-27T02:22:58.462Z,0
2019-01-27T02:24:06.520Z,0
2019-01-27T02:25:14.546Z,0
2019-01-27T02:26:22.636Z,0
2019-01-27T02:27:30.692Z,0
2019-01-27T02:28:38.733Z,0
2019-01-27T02:29:46.797Z,0
2019-01-27T02:30:54.859Z,0
2019-01-27T02:32:02.920Z,0
2019-01-27T02:33:10.974Z,0
2019-01-27T02:34:19.035Z,0
2019-01-27T02:35:27.078Z,0
2019-01-27T02:36:35.145Z,0
2019-01-27T02:37:43.205Z,0
2019-01-27T02:38:51.254Z,0
2019-01-27T02:39:59.319Z,0
2019-01-27T02:41:07.364Z,0
2019-01-27T02:42:15.441Z,0
2019-01-27T02:43:23.475Z,0
2019-01-27T02:44:31.529Z,0
2019-01-27T02:45:39.601Z,0
2019-01-27T02:46:47.655Z,0
2019-01-27T02:47:55.707Z,0
2019-01-27T02:49:03.764Z,0
2019-01-27T02:50:11.820Z,0
2019-01-27T02:51:19.878Z,0
2019-01-27T02:52:27.929Z,0
2019-01-27T02:53:35.990Z,0
2019-01-27T02:54:44.009Z,0
2019-01-27T02:55:52.102Z,0
2019-01-27T02:57:00.136Z,0
2019-01-27T02:58:08.215Z,0
2019-01-27T02:59:16.273Z,0
2019-01-27T03:00:24.301Z,0
2019-01-27T03:01:32.379Z,0
2019-01-27T03:02:40.426Z,0
2019-01-27T03:03:48.490Z,0
2019-01-27T03:04:56.547Z,0
2019-01-27T03:06:04.574Z,0
2019-01-27T03:07:12.667Z,0
2019-01-27T03:08:20.724Z,0
2019-01-27T03:09:28.781Z,0
2019-01-27T03:10:36.839Z,0
2019-01-27T03:11:44.903Z,0
2019-01-27T03:12:52.953Z,0
2019-01-27T03:14:01.010Z,0
2019-01-27T03:15:09.056Z,0
2019-01-27T03:16:17.111Z,0
2019-01-27T03:17:25.173Z,0
2019-01-27T03:18:33.246Z,0
2019-01-27T03:19:41.286Z,0
2019-01-27T03:20:49.331Z,0
2019-01-27T03:21:57.395Z,0
2019-01-27T03:23:05.469Z,0
2019-01-27T03:24:13.547Z,0
2019-01-27T03:25:21.570Z,0
2019-01-27T03:26:29.711Z,0
2019-01-27T03:27:37.686Z,0
2019-01-27T03:28:45.733Z,0
2019-01-27T03:29:53.776Z,0
2019-01-27T03:31:01.851Z,0
2019-01-27T03:32:09.911Z,0
2019-01-27T03:33:17.969Z,0
2019-01-27T03:34:26.016Z,0
2019-01-27T03:35:34.054Z,0
2019-01-27T03:36:42.146Z,0
2019-01-27T03:37:50.186Z,0
2019-01-27T03:38:58.244Z,0
2019-01-27T03:40:06.305Z,0
2019-01-27T03:41:14.345Z,0
2019-01-27T03:42:22.411Z,0
2019-01-27T03:43:30.473Z,0
2019-01-27T03:44:38.560Z,0
2019-01-27T03:45:46.598Z,0
2019-01-27T03:46:54.622Z,0
2019-01-27T03:48:02.693Z,0
2019-01-27T03:49:10.753Z,0
2019-01-27T03:50:18.814Z,0
2019-01-27T03:51:26.882Z,0
2019-01-27T03:52:34.920Z,0
2019-01-27T03:53:42.987Z,0
2019-01-27T03:54:51.038Z,0
2019-01-27T03:55:59.093Z,0
2019-01-27T03:57:07.156Z,0
2019-01-27T03:58:15.213Z,0
2019-01-27T03:59:23.275Z,0
2019-01-27T04:00:31.334Z,0
2019-01-27T04:01:39.399Z,0
2019-01-27T04:02:47.476Z,0
2019-01-27T04:03:55.494Z,0
2019-01-27T04:05:03.543Z,0
2019-01-27T04:06:11.602Z,0
2019-01-27T04:07:19.660Z,0
2019-01-27T04:08:27.725Z,0
2019-01-27T04:09:35.773Z,0
2019-01-27T04:10:44.762Z,0
2019-01-27T04:11:51.895Z,0
2019-01-27T04:12:59.952Z,0
2019-01-27T04:14:07.997Z,0
2019-01-27T04:15:16.063Z,0
2019-01-27T04:16:24.074Z,0
2019-01-27T04:17:32.172Z,0
2019-01-27T04:18:40.249Z,0
2019-01-27T04:19:48.339Z,0
2019-01-27T04:20:56.381Z,0
2019-01-27T04:22:04.417Z,0
2019-01-27T04:23:12.451Z,0
2019-01-27T04:24:20.515Z,0
2019-01-27T04:25:28.556Z,0
2019-01-27T04:26:36.637Z,0
2019-01-27T04:27:44.651Z,0
2019-01-27T04:28:52.736Z,0
2019-01-27T04:30:00.786Z,0
2019-01-27T04:31:08.854Z,0
2019-01-27T04:32:16.933Z,0
2019-01-27T04:33:24.956Z,0
2019-01-27T04:34:33.008Z,0
2019-01-27T04:35:41.085Z,0
2019-01-27T04:36:49.145Z,0
2019-01-27T04:37:57.206Z,0
2019-01-27T04:39:05.244Z,0
2019-01-27T04:40:13.338Z,0
2019-01-27T04:41:21.353Z,0
2019-01-27T04:42:29.536Z,0
2019-01-27T04:43:37.485Z,0
2019-01-27T04:44:45.534Z,0
2019-01-27T04:45:53.594Z,0
2019-01-27T04:47:01.655Z,0
2019-01-27T04:48:09.703Z,0
2019-01-27T04:49:17.768Z,0
2019-01-27T04:50:25.819Z,0
2019-01-27T04:51:33.860Z,0
2019-01-27T04:52:41.940Z,0
2019-01-27T04:53:49.980Z,0
2019-01-27T04:54:58.043Z,0
2019-01-27T04:56:06.115Z,0
2019-01-27T04:57:14.124Z,0
2019-01-27T04:58:22.215Z,0
2019-01-27T04:59:30.278Z,0
2019-01-27T05:00:38.335Z,0
2019-01-27T05:01:46.386Z,0
2019-01-27T05:02:54.414Z,0
2019-01-27T05:04:02.484Z,0
2019-01-27T05:05:10.545Z,0
2019-01-27T05:06:18.613Z,0
2019-01-27T05:07:26.677Z,0
2019-01-27T05:08:34.696Z,0
2019-01-27T05:09:42.787Z,0
2019-01-27T05:10:50.826Z,0
2019-01-27T05:11:58.903Z,0
2019-01-27T05:13:06.990Z,0
2019-01-27T05:14:15.002Z,0
2019-01-27T05:15:23.055Z,0
2019-01-27T05:16:31.148Z,0
2019-01-27T05:17:39.172Z,0
2019-01-27T05:18:47.236Z,0
2019-01-27T05:19:55.295Z,0
2019-01-27T05:21:03.352Z,0
2019-01-27T05:22:11.409Z,0
2019-01-27T05:23:19.563Z,0
2019-01-27T05:24:27.509Z,0
2019-01-27T05:25:35.579Z,0
2019-01-27T05:26:43.643Z,0
2019-01-27T05:27:51.691Z,0
2019-01-27T05:28:59.756Z,0
2019-01-27T05:30:07.808Z,0
2019-01-27T05:31:15.861Z,0
2019-01-27T05:32:23.897Z,0
2019-01-27T05:33:31.975Z,0
2019-01-27T05:34:40.038Z,0
2019-01-27T05:35:48.071Z,0
2019-01-27T05:36:56.134Z,0
2019-01-27T05:38:04.167Z,0
2019-01-27T05:39:12.262Z,0
2019-01-27T05:40:20.317Z,0
2019-01-27T05:41:28.373Z,0
2019-01-27T05:42:36.418Z,0
2019-01-27T05:43:44.466Z,0
2019-01-27T05:44:52.536Z,0
2019-01-27T05:46:00.599Z,0
2019-01-27T05:47:08.656Z,0
2019-01-27T05:48:16.702Z,0
2019-01-27T05:49:24.733Z,0
2019-01-27T05:50:32.858Z,0
2019-01-27T05:51:40.872Z,0
2019-01-27T05:52:48.926Z,0
2019-01-27T05:53:56.990Z,0
2019-01-27T05:55:05.029Z,0
2019-01-27T05:56:13.092Z,0
2019-01-27T05:57:21.150Z,0
2019-01-27T05:58:29.212Z,0
2019-01-27T05:59:37.266Z,0
2019-01-27T06:00:45.323Z,0
2019-01-27T06:01:53.387Z,0
2019-01-27T06:03:01.445Z,0
2019-01-27T06:04:09.488Z,0
2019-01-27T06:05:17.561Z,0
2019-01-27T06:06:25.609Z,0
2019-01-27T06:07:33.658Z,0
2019-01-27T06:08:41.712Z,0
2019-01-27T06:09:49.814Z,0
2019-01-27T06:10:57.840Z,0
2019-01-27T06:12:05.890Z,0
2019-01-27T06:13:13.923Z,0
2019-01-27T06:14:22.004Z,0
2019-01-27T06:15:30.050Z,0
2019-01-27T06:16:38.117Z,0
2019-01-27T06:17:46.167Z,0
2019-01-27T06:18:54.194Z,0
2019-01-27T06:20:02.282Z,0
2019-01-27T06:21:10.340Z,0
2019-01-27T06:22:18.399Z,0
2019-01-27T06:23:26.443Z,0
2019-01-27T06:24:34.484Z,0
2019-01-27T06:25:42.561Z,0
2019-01-27T06:26:50.623Z,0
2019-01-27T06:27:58.720Z,0
2019-01-27T06:29:06.743Z,0
2019-01-27T06:30:14.766Z,0
2019-01-27T06:31:22.841Z,0
2019-01-27T06:32:30.898Z,0
2019-01-27T06:33:38.966Z,0
2019-01-27T06:34:47.012Z,0
2019-01-27T06:35:55.058Z,0
2019-01-27T06:37:03.137Z,0
2019-01-27T06:38:11.204Z,0
2019-01-27T06:39:19.259Z,0
2019-01-27T06:40:27.309Z,0
2019-01-27T06:41:35.360Z,0
2019-01-27T06:42:43.420Z,0
2019-01-27T06:43:51.480Z,0
2019-01-27T06:44:59.530Z,0
2019-01-27T06:46:07.572Z,0
2019-01-27T06:47:15.685Z,0
2019-01-27T06:48:23.701Z,0
2019-01-27T06:49:31.761Z,0
2019-01-27T06:50:39.815Z,0
2019-01-27T06:51:47.875Z,0
2019-01-27T06:52:55.924Z,0
2019-01-27T06:54:03.958Z,0
2019-01-27T06:55:12.045Z,0
2019-01-27T06:56:20.103Z,0
2019-01-27T06:57:28.505Z,0
2019-01-27T06:58:36.196Z,0
2019-01-27T06:59:44.234Z,0
2019-01-27T07:00:52.328Z,0
2019-01-27T07:02:00.412Z,0
2019-01-27T07:03:08.439Z,0
2019-01-27T07:04:16.491Z,0
2019-01-27T07:05:24.528Z,5
2019-01-27T07:06:32.613Z,5
2019-01-27T07:07:40.676Z,5
2019-01-27T07:08:48.753Z,5
2019-01-27T07:09:56.787Z,5
2019-01-27T07:11:05.420Z,5
2019-01-27T07:12:12.881Z,5
2019-01-27T07:13:20.939Z,10
2019-01-27T07:14:29.015Z,10
2019-01-27T07:15:37.055Z,10
2019-01-27T07:16:45.109Z,10
2019-01-27T07:17:53.485Z,10
2019-01-27T07:19:01.234Z,15
2019-01-27T07:20:09.385Z,15
2019-01-27T07:21:17.778Z,15
2019-01-27T07:22:26.500Z,15
2019-01-27T07:23:33.444Z,15
2019-01-27T07:24:41.507Z,15
2019-01-27T07:25:49.560Z,20
2019-01-27T07:26:57.614Z,20
2019-01-27T07:28:05.678Z,20
2019-01-27T07:29:13.731Z,20
2019-01-27T07:30:21.796Z,25
2019-01-27T07:31:29.822Z,30
2019-01-27T07:32:37.903Z,30
2019-01-27T07:33:46.263Z,25
2019-01-27T07:34:54.876Z,30
2019-01-27T07:36:02.064Z,35
2019-01-27T07:37:10.130Z,30
2019-01-27T07:38:18.184Z,30
2019-01-27T07:39:26.241Z,30
2019-01-27T07:40:34.271Z,35
2019-01-27T07:41:42.506Z,40
2019-01-27T07:42:50.395Z,35
2019-01-27T07:43:58.461Z,35
2019-01-27T07:45:06.858Z,40
2019-01-27T07:46:14.778Z,40
2019-01-27T07:47:22.642Z,40
2019-01-27T07:48:30.825Z,45
2019-01-27T07:49:38.994Z,45
2019-01-27T07:50:47.005Z,45
2019-01-27T07:51:55.065Z,40
2019-01-27T07:53:03.143Z,40
2019-01-27T07:54:10.977Z,40
2019-01-27T07:55:19.061Z,45
2019-01-27T07:56:27.210Z,40
2019-01-27T07:57:35.171Z,45
2019-01-27T07:58:43.210Z,40
2019-01-27T07:59:51.246Z,50
2019-01-27T08:00:59.750Z,55
2019-01-27T08:02:07.448Z,55
2019-01-27T08:03:15.761Z,50
2019-01-27T08:04:23.704Z,50
2019-01-27T08:05:31.755Z,55
2019-01-27T08:06:39.588Z,60
2019-01-27T08:07:47.843Z,60
2019-01-27T08:08:55.749Z,60
2019-01-27T08:10:03.764Z,60
2019-01-27T08:11:12.071Z,65
2019-01-27T08:12:19.879Z,65
2019-01-27T08:13:27.933Z,75
2019-01-27T08:14:36.170Z,90
2019-01-27T08:15:44.216Z,105
2019-01-27T08:16:52.106Z,105
2019-01-27T08:18:00.187Z,100
2019-01-27T08:19:08.212Z,95
2019-01-27T08:20:16.890Z,90
2019-01-27T08:21:24.302Z,100
2019-01-27T08:22:32.385Z,100
2019-01-27T08:23:40.420Z,95
2019-01-27T08:24:48.489Z,95
2019-01-27T08:25:56.686Z,125
2019-01-27T08:27:04.591Z,135
2019-01-27T08:28:12.849Z,130
2019-01-27T08:29:20.710Z,150
2019-01-27T08:30:28.801Z,135
2019-01-27T08:31:36.839Z,125
2019-01-27T08:32:45.265Z,150
2019-01-27T08:33:53.020Z,125
2019-01-27T08:35:01.019Z,120
2019-01-27T08:36:09.075Z,130
2019-01-27T08:37:17.741Z,130
2019-01-27T08:38:25.181Z,125
2019-01-27T08:39:33.867Z,125
2019-01-27T08:40:41.319Z,120
2019-01-27T08:41:49.399Z,115
2019-01-27T08:42:57.717Z,125
2019-01-27T08:44:06.034Z,125
2019-01-27T08:45:13.676Z,110
2019-01-27T08:46:21.957Z,105
2019-01-27T08:47:30.207Z,100
2019-01-27T08:48:39.041Z,100
2019-01-27T08:49:46.143Z,110
2019-01-27T08:50:54.436Z,105
2019-01-27T08:52:01.868Z,115
2019-01-27T08:53:09.936Z,110
2019-01-27T08:54:17.987Z,105
2019-01-27T08:55:26.351Z,110
2019-01-27T08:56:34.090Z,130
2019-01-27T08:57:42.163Z,115
2019-01-27T08:58:50.216Z,125
2019-01-27T08:59:58.533Z,155
2019-01-27T09:01:06.824Z,165
2019-01-27T09:02:14.982Z,160
2019-01-27T09:03:22.522Z,195
2019-01-27T09:04:30.541Z,165
2019-01-27T09:05:38.574Z,170
2019-01-27T09:06:46.635Z,150
2019-01-27T09:07:55.041Z,155
2019-01-27T09:09:03.217Z,155
2019-01-27T09:10:10.795Z,160
2019-01-27T09:11:18.850Z,165
2019-01-27T09:12:26.946Z,205
2019-01-27T09:13:35.457Z,180
2019-01-27T09:14:43.050Z,175
2019-01-27T09:15:51.077Z,140
2019-01-27T09:16:59.160Z,135
2019-01-27T09:18:07.198Z,135
2019-01-27T09:19:15.546Z,135
2019-01-27T09:20:23.320Z,170
2019-01-27T09:21:31.385Z,155
2019-01-27T09:22:39.698Z,180
2019-01-27T09:23:47.628Z,200
2019-01-27T09:24:56.049Z,170
2019-01-27T09:26:04.204Z,150
2019-01-27T09:27:11.768Z,155
2019-01-27T09:28:19.736Z,155
2019-01-27T09:29:27.786Z,135
2019-01-27T09:30:35.890Z,125
2019-01-27T09:31:44.139Z,110
2019-01-27T09:32:52.975Z,115
2019-01-27T09:34:00.017Z,145
2019-01-27T09:35:08.079Z,185
2019-01-27T09:36:16.119Z,180
2019-01-27T09:37:24.159Z,150
2019-01-27T09:38:32.246Z,170
2019-01-27T09:39:40.881Z,185
2019-01-27T09:40:48.399Z,140
2019-01-27T09:41:56.943Z,160
2019-01-27T09:43:04.570Z,180
2019-01-27T09:44:12.549Z,210
2019-01-27T09:45:21.114Z,240
2019-01-27T09:46:28.651Z,190
2019-01-27T09:47:36.718Z,210
2019-01-27T09:48:44.769Z,305
2019-01-27T09:49:52.838Z,295
2019-01-27T09:51:01.581Z,330
2019-01-27T09:52:08.953Z,355
2019-01-27T09:53:17.009Z,380
2019-01-27T09:54:25.067Z,225
2019-01-27T09:55:33.113Z,255
2019-01-27T09:56:41.256Z,290
2019-01-27T09:57:49.903Z,215
2019-01-27T09:58:57.303Z,180
2019-01-27T10:00:05.358Z,340
2019-01-27T10:01:14.077Z,355
2019-01-27T10:02:22.158Z,245
2019-01-27T10:03:30.156Z,145
2019-01-27T10:04:37.690Z,180
2019-01-27T10:05:46.158Z,170
2019-01-27T10:06:54.157Z,225
2019-01-27T10:08:02.357Z,335
2019-01-27T10:09:10.474Z,380
2019-01-27T10:10:18.780Z,330
2019-01-27T10:11:26.420Z,235
2019-01-27T10:12:34.522Z,210
2019-01-27T10:13:42.456Z,190
2019-01-27T10:14:50.110Z,215
2019-01-27T10:15:58.188Z,275
2019-01-27T10:17:06.238Z,275
2019-01-27T10:18:14.271Z,205
2019-01-27T10:19:22.354Z,200
2019-01-27T10:20:30.417Z,200
2019-01-27T10:21:38.474Z,200
2019-01-27T10:22:46.531Z,220
2019-01-27T10:23:54.566Z,225
2019-01-27T10:25:02.644Z,205
2019-01-27T10:26:10.750Z,185
2019-01-27T10:27:18.764Z,165
2019-01-27T10:28:26.814Z,215
2019-01-27T10:29:34.900Z,185
2019-01-27T10:30:42.949Z,155
2019-01-27T10:31:50.999Z,175
2019-01-27T10:32:59.045Z,185
2019-01-27T10:34:07.110Z,135
2019-01-27T10:35:15.168Z,140
2019-01-27T10:36:23.232Z,135
2019-01-27T10:37:31.296Z,145
2019-01-27T10:38:39.352Z,140
2019-01-27T10:39:47.403Z,115
2019-01-27T10:40:55.459Z,150
2019-01-27T10:42:03.532Z,145
2019-01-27T10:43:11.582Z,160
2019-01-27T10:44:19.636Z,210
2019-01-27T10:45:27.708Z,220
2019-01-27T10:46:35.761Z,195
2019-01-27T10:47:43.835Z,260
2019-01-27T10:48:52.021Z,440
2019-01-27T10:49:59.939Z,315
2019-01-27T10:51:07.996Z,330
2019-01-27T10:52:16.066Z,255
2019-01-27T10:53:25.487Z,250
2019-01-27T10:54:32.167Z,285
2019-01-27T10:55:40.231Z,245
2019-01-27T10:56:48.297Z,255
2019-01-27T10:57:56.354Z,295
2019-01-27T10:59:04.378Z,460
2019-01-27T11:00:12.462Z,440
2019-01-27T11:01:20.541Z,350
2019-01-27T11:02:28.589Z,450
2019-01-27T11:03:36.658Z,490
2019-01-27T11:04:44.684Z,505
2019-01-27T11:05:52.780Z,590
2019-01-27T11:07:00.826Z,595
2019-01-27T11:08:08.960Z,560
2019-01-27T11:09:16.934Z,555
2019-01-27T11:10:25.009Z,505
2019-01-27T11:11:33.078Z,465
2019-01-27T11:12:41.133Z,470
2019-01-27T11:13:49.188Z,680
2019-01-27T11:14:57.237Z,635
2019-01-27T11:16:05.306Z,425
2019-01-27T11:17:13.386Z,375
2019-01-27T11:18:21.443Z,320
2019-01-27T11:19:29.499Z,300
2019-01-27T11:20:39.966Z,280
2019-01-27T11:21:45.621Z,285
2019-01-27T11:22:53.673Z,300
2019-01-27T11:24:01.745Z,250
2019-01-27T11:25:09.797Z,205
2019-01-27T11:26:17.877Z,260
2019-01-27T11:27:32.746Z,380
2019-01-27T11:28:33.963Z,340
2019-01-27T11:29:42.119Z,380
2019-01-27T11:30:50.113Z,350
2019-01-27T11:31:58.177Z,355
2019-01-27T11:33:06.217Z,320
2019-01-27T11:34:14.267Z,230
2019-01-27T11:35:22.338Z,250
2019-01-27T11:36:30.421Z,185
2019-01-27T11:37:38.472Z,225
2019-01-27T11:38:46.535Z,280
2019-01-27T11:39:54.592Z,220
2019-01-27T11:41:02.709Z,270
2019-01-27T11:42:10.762Z,230
2019-01-27T11:43:18.788Z,240
2019-01-27T11:44:26.942Z,255
2019-01-27T11:45:35.084Z,260
2019-01-27T11:46:42.972Z,280
2019-01-27T11:47:51.029Z,300
2019-01-27T11:48:59.095Z,330
2019-01-27T11:50:07.135Z,270
2019-01-27T11:51:15.223Z,310
2019-01-27T11:52:23.270Z,245
2019-01-27T11:53:31.315Z,155
2019-01-27T11:54:39.397Z,160
2019-01-27T11:55:47.567Z,155
2019-01-27T11:56:55.523Z,145
2019-01-27T11:58:03.596Z,305
2019-01-27T11:59:11.635Z,340
2019-01-27T12:00:19.718Z,395
2019-01-27T12:01:27.782Z,460
2019-01-27T12:02:35.826Z,400
2019-01-27T12:03:43.898Z,320
2019-01-27T12:04:52.648Z,325
2019-01-27T12:06:00.013Z,335
2019-01-27T12:07:08.224Z,340
2019-01-27T12:08:16.158Z,325
2019-01-27T12:09:24.230Z,295
2019-01-27T12:10:32.307Z,260
2019-01-27T12:11:40.325Z,240
2019-01-27T12:12:48.435Z,210
2019-01-27T12:13:56.709Z,240
2019-01-27T12:15:04.485Z,230
2019-01-27T12:16:12.557Z,200
2019-01-27T12:17:20.638Z,160
2019-01-27T12:18:28.722Z,165
2019-01-27T12:19:40.260Z,160
2019-01-27T12:20:44.838Z,200
2019-01-27T12:21:52.874Z,220
2019-01-27T12:23:00.928Z,325
2019-01-27T12:24:08.993Z,405
2019-01-27T12:25:18.215Z,370
2019-01-27T12:26:25.229Z,405
2019-01-27T12:27:33.218Z,355
2019-01-27T12:28:41.224Z,285
2019-01-27T12:29:49.315Z,290
2019-01-27T12:30:57.418Z,310
2019-01-27T12:32:05.433Z,340
2019-01-27T12:33:13.509Z,345
2019-01-27T12:34:21.575Z,365
2019-01-27T12:35:29.617Z,340
2019-01-27T12:36:37.685Z,360
2019-01-27T12:37:45.959Z,330
2019-01-27T12:38:53.779Z,320
2019-01-27T12:40:01.878Z,295
2019-01-27T12:41:10.070Z,295
2019-01-27T12:42:17.990Z,295
2019-01-27T12:43:26.041Z,295
2019-01-27T12:44:34.079Z,305
2019-01-27T12:45:42.159Z,320
2019-01-27T12:46:50.223Z,340
2019-01-27T12:47:58.298Z,305
2019-01-27T12:49:06.364Z,325
2019-01-27T12:50:14.386Z,325
2019-01-27T12:51:22.483Z,305
2019-01-27T12:52:30.544Z,305
2019-01-27T12:53:38.617Z,325
2019-01-27T12:54:46.682Z,405
2019-01-27T12:55:54.712Z,270
2019-01-27T12:57:02.788Z,250
2019-01-27T12:58:10.857Z,255
2019-01-27T12:59:19.405Z,245
2019-01-27T13:00:27.545Z,280
2019-01-27T13:01:35.037Z,255
2019-01-27T13:02:43.077Z,245
2019-01-27T13:03:51.177Z,210
2019-01-27T13:04:59.213Z,190
2019-01-27T13:06:07.291Z,175
2019-01-27T13:07:15.378Z,170
2019-01-27T13:08:23.433Z,160
2019-01-27T13:09:31.476Z,190
2019-01-27T13:10:39.524Z,180
2019-01-27T13:11:47.597Z,170
2019-01-27T13:12:55.851Z,150
2019-01-27T13:14:03.710Z,145
2019-01-27T13:15:11.812Z,160
2019-01-27T13:16:20.060Z,135
2019-01-27T13:17:27.912Z,135
2019-01-27T13:18:36.463Z,135
2019-01-27T13:19:44.004Z,145
2019-01-27T13:20:52.112Z,130
2019-01-27T13:22:00.183Z,135
2019-01-27T13:23:08.214Z,150
2019-01-27T13:24:16.276Z,155
2019-01-27T13:25:24.308Z,140
2019-01-27T13:26:32.402Z,155
2019-01-27T13:27:40.463Z,160
2019-01-27T13:28:48.508Z,145
2019-01-27T13:29:56.581Z,170
2019-01-27T13:31:04.642Z,195
2019-01-27T13:32:12.716Z,185
2019-01-27T13:33:20.763Z,210
2019-01-27T13:34:28.825Z,185
2019-01-27T13:35:38.803Z,180
2019-01-27T13:36:44.940Z,220
2019-01-27T13:37:53.017Z,195
2019-01-27T13:39:01.061Z,180
2019-01-27T13:40:09.162Z,195
2019-01-27T13:41:17.181Z,220
2019-01-27T13:42:25.253Z,260
2019-01-27T13:43:33.325Z,280
2019-01-27T13:44:41.391Z,275
2019-01-27T13:45:49.422Z,325
2019-01-27T13:46:57.515Z,330
2019-01-27T13:48:05.559Z,305
2019-01-27T13:49:13.617Z,310
2019-01-27T13:50:21.688Z,305
2019-01-27T13:51:29.736Z,355
2019-01-27T13:52:37.805Z,255
2019-01-27T13:53:45.862Z,255
2019-01-27T13:54:54.098Z,205
2019-01-27T13:56:01.980Z,205
2019-01-27T13:57:10.033Z,215
2019-01-27T13:58:18.123Z,190
2019-01-27T13:59:26.186Z,185
2019-01-27T14:00:34.647Z,150
2019-01-27T14:01:42.914Z,130
2019-01-27T14:02:51.015Z,140
2019-01-27T14:03:59.083Z,135
2019-01-27T14:05:07.146Z,155
2019-01-27T14:06:15.177Z,165
2019-01-27T14:07:23.291Z,180
2019-01-27T14:08:31.234Z,230
2019-01-27T14:09:39.356Z,245
2019-01-27T14:10:47.425Z,225
2019-01-27T14:11:55.491Z,215
2019-01-27T14:13:03.577Z,145
2019-01-27T14:14:11.584Z,120
2019-01-27T14:15:19.026Z,115
2019-01-27T14:16:27.103Z,135
2019-01-27T14:17:35.177Z,170
2019-01-27T14:18:43.213Z,145
2019-01-27T14:19:51.285Z,115
2019-01-27T14:20:59.358Z,110
2019-01-27T14:22:07.407Z,125
2019-01-27T14:23:15.459Z,135
2019-01-27T14:24:23.553Z,140
2019-01-27T14:25:31.596Z,130
2019-01-27T14:26:39.635Z,115
2019-01-27T14:27:47.709Z,130
2019-01-27T14:28:55.761Z,135
2019-01-27T14:30:03.814Z,150
2019-01-27T14:31:11.908Z,135
2019-01-27T14:32:19.942Z,145
2019-01-27T14:33:28.006Z,130
2019-01-27T14:34:36.076Z,140
2019-01-27T14:35:44.100Z,120
2019-01-27T14:36:52.201Z,100
2019-01-27T14:38:00.257Z,80
2019-01-27T14:39:08.303Z,100
2019-01-27T14:40:16.378Z,95
2019-01-27T14:41:24.407Z,95
2019-01-27T14:42:32.491Z,120
2019-01-27T14:43:40.592Z,120
2019-01-27T14:44:48.621Z,125
2019-01-27T14:45:56.680Z,110
2019-01-27T14:47:04.722Z,105
2019-01-27T14:48:12.800Z,105
2019-01-27T14:49:20.852Z,100
2019-01-27T14:50:28.934Z,105
2019-01-27T14:51:36.990Z,110
2019-01-27T14:52:45.053Z,115
2019-01-27T14:53:53.106Z,145
2019-01-27T14:55:01.166Z,140
2019-01-27T14:56:09.206Z,160
2019-01-27T14:57:17.562Z,160
2019-01-27T14:58:25.361Z,180
2019-01-27T14:59:33.409Z,140
2019-01-27T15:00:41.853Z,110
2019-01-27T15:01:49.541Z,110
2019-01-27T15:02:58.295Z,120
2019-01-27T15:04:05.703Z,125
2019-01-27T15:05:13.705Z,135
2019-01-27T15:06:21.811Z,155
2019-01-27T15:07:29.921Z,160
2019-01-27T15:08:38.261Z,165
2019-01-27T15:09:45.964Z,170
2019-01-27T15:10:54.004Z,175
2019-01-27T15:12:02.446Z,170
2019-01-27T15:13:10.143Z,165
2019-01-27T15:14:18.371Z,135
2019-01-27T15:15:26.286Z,115
2019-01-27T15:16:34.308Z,115
2019-01-27T15:17:42.762Z,105
2019-01-27T15:18:51.079Z,90
2019-01-27T15:19:58.508Z,95
2019-01-27T15:21:06.576Z,100
2019-01-27T15:22:14.611Z,90
2019-01-27T15:23:22.694Z,70
2019-01-27T15:24:30.754Z,65
2019-01-27T15:25:39.188Z,65
2019-01-27T15:26:47.271Z,65
2019-01-27T15:27:55.198Z,60
2019-01-27T15:29:03.124Z,75
2019-01-27T15:30:11.613Z,65
2019-01-27T15:31:19.141Z,60
2019-01-27T15:32:27.265Z,65
2019-01-27T15:33:35.261Z,55
2019-01-27T15:34:43.857Z,50
2019-01-27T15:35:51.353Z,45
2019-01-27T15:37:00.080Z,45
2019-01-27T15:38:07.769Z,40
2019-01-27T15:39:15.566Z,35
2019-01-27T15:40:24.077Z,30
2019-01-27T15:41:32.258Z,25
2019-01-27T15:42:41.267Z,25
2019-01-27T15:43:48.606Z,25
2019-01-27T15:44:56.224Z,25
2019-01-27T15:46:04.487Z,20
2019-01-27T15:47:11.967Z,20
2019-01-27T15:48:20.017Z,20
2019-01-27T15:49:28.082Z,20
2019-01-27T15:50:36.254Z,20
2019-01-27T15:51:44.219Z,20
2019-01-27T15:52:52.295Z,15
2019-01-27T15:54:00.309Z,15
2019-01-27T15:55:08.370Z,15
2019-01-27T15:56:16.850Z,15
2019-01-27T15:57:25.153Z,20
2019-01-27T15:58:32.564Z,20
2019-01-27T15:59:40.621Z,20
2019-01-27T16:00:48.671Z,15
2019-01-27T16:01:56.760Z,15
2019-01-27T16:03:04.778Z,15
2019-01-27T16:04:12.896Z,15
2019-01-27T16:05:20.948Z,15
2019-01-27T16:06:28.967Z,10
2019-01-27T16:07:37.030Z,10
2019-01-27T16:08:45.122Z,10
2019-01-27T16:09:57.240Z,5
2019-01-27T16:11:01.197Z,5